sensor_id;sensor_type;location;lat;lon;timestamp;temperature;humidity
37408;DHT22;24866;50.248;8.252;2023-01-13T00:00:51;9.10;99.90
37408;DHT22;24866;50.248;8.252;2023-01-13T00:03:21;9.10;99.90
37408;DHT22;24866;50.248;8.252;2023-01-13T00:05:52;9.20;99.90
37408;DHT22;24866;50.248;8.252;2023-01-13T00:08:23;9.20;99.90
37408;DHT22;24866;50.248;8.252;2023-01-13T00:10:53;9.20;99.90
37408;DHT22;24866;50.248;8.252;2023-01-13T00:13:25;9.20;99.90
37408;DHT22;24866;50.248;8.252;2023-01-13T00:15:56;9.30;99.90
37408;DHT22;24866;50.248;8.252;2023-01-13T00:18:26;9.20;99.90
37408;DHT22;24866;50.248;8.252;2023-01-13T00:21:00;9.20;99.90
37408;DHT22;24866;50.248;8.252;2023-01-13T00:23:31;9.20;99.90
37408;DHT22;24866;50.248;8.252;2023-01-13T00:26:05;9.20;99.90
37408;DHT22;24866;50.248;8.252;2023-01-13T00:28:36;9.20;99.90
37408;DHT22;24866;50.248;8.252;2023-01-13T00:31:07;9.20;99.90
37408;DHT22;24866;50.248;8.252;2023-01-13T00:33:38;9.10;99.90
37408;DHT22;24866;50.248;8.252;2023-01-13T00:36:10;9.10;99.90
37408;DHT22;24866;50.248;8.252;2023-01-13T00:38:41;9.10;99.90
37408;DHT22;24866;50.248;8.252;2023-01-13T00:41:13;9.10;99.90
37408;DHT22;24866;50.248;8.252;2023-01-13T00:43:46;9.20;99.90
37408;DHT22;24866;50.248;8.252;2023-01-13T00:46:17;9.20;99.90
37408;DHT22;24866;50.248;8.252;2023-01-13T00:48:49;9.10;99.90
37408;DHT22;24866;50.248;8.252;2023-01-13T00:51:20;9.20;99.90
37408;DHT22;24866;50.248;8.252;2023-01-13T00:53:51;9.40;99.90
37408;DHT22;24866;50.248;8.252;2023-01-13T00:56:23;9.40;99.90
37408;DHT22;24866;50.248;8.252;2023-01-13T00:58:54;9.30;99.90
37408;DHT22;24866;50.248;8.252;2023-01-13T01:01:26;9.40;99.90
37408;DHT22;24866;50.248;8.252;2023-01-13T01:03:56;9.40;99.90
37408;DHT22;24866;50.248;8.252;2023-01-13T01:06:26;9.40;99.90
37408;DHT22;24866;50.248;8.252;2023-01-13T01:08:57;9.40;99.90
37408;DHT22;24866;50.248;8.252;2023-01-13T01:11:28;9.50;99.90
37408;DHT22;24866;50.248;8.252;2023-01-13T01:14:02;9.50;99.90
37408;DHT22;24866;50.248;8.252;2023-01-13T01:16:33;9.50;99.90
37408;DHT22;24866;50.248;8.252;2023-01-13T01:19:03;9.40;99.90
37408;DHT22;24866;50.248;8.252;2023-01-13T01:21:34;9.40;99.90
37408;DHT22;24866;50.248;8.252;2023-01-13T01:24:04;9.40;99.90
37408;DHT22;24866;50.248;8.252;2023-01-13T01:26:34;9.30;99.90
37408;DHT22;24866;50.248;8.252;2023-01-13T01:29:06;9.30;99.90
37408;DHT22;24866;50.248;8.252;2023-01-13T01:31:35;9.20;99.90
37408;DHT22;24866;50.248;8.252;2023-01-13T01:34:06;9.20;99.90
37408;DHT22;24866;50.248;8.252;2023-01-13T01:36:36;9.20;99.90
37408;DHT22;24866;50.248;8.252;2023-01-13T01:39:08;9.20;99.90
37408;DHT22;24866;50.248;8.252;2023-01-13T01:41:40;9.20;99.90
37408;DHT22;24866;50.248;8.252;2023-01-13T01:44:57;9.20;99.90
37408;DHT22;24866;50.248;8.252;2023-01-13T01:47:27;9.20;99.90
37408;DHT22;24866;50.248;8.252;2023-01-13T01:50:00;9.30;99.90
37408;DHT22;24866;50.248;8.252;2023-01-13T01:52:33;9.30;99.90
37408;DHT22;24866;50.248;8.252;2023-01-13T01:55:08;9.30;99.90
37408;DHT22;24866;50.248;8.252;2023-01-13T01:57:42;9.30;99.90
37408;DHT22;24866;50.248;8.252;2023-01-13T02:00:17;9.30;99.90
37408;DHT22;24866;50.248;8.252;2023-01-13T02:02:48;9.30;99.90
37408;DHT22;24866;50.248;8.252;2023-01-13T02:05:19;9.30;99.90
37408;DHT22;24866;50.248;8.252;2023-01-13T02:07:52;9.30;99.90
37408;DHT22;24866;50.248;8.252;2023-01-13T02:10:25;9.20;99.90
37408;DHT22;24866;50.248;8.252;2023-01-13T02:12:58;9.20;99.90
37408;DHT22;24866;50.248;8.252;2023-01-13T02:15:31;9.10;99.90
37408;DHT22;24866;50.248;8.252;2023-01-13T02:18:42;9.10;99.90
37408;DHT22;24866;50.248;8.252;2023-01-13T02:21:49;9.00;99.90
37408;DHT22;24866;50.248;8.252;2023-01-13T02:25:02;9.00;99.90
37408;DHT22;24866;50.248;8.252;2023-01-13T02:27:56;8.90;99.90
37408;DHT22;24866;50.248;8.252;2023-01-13T02:30:39;8.80;99.90
37408;DHT22;24866;50.248;8.252;2023-01-13T02:33:41;8.80;99.90
37408;DHT22;24866;50.248;8.252;2023-01-13T02:36:20;8.90;99.90
37408;DHT22;24866;50.248;8.252;2023-01-13T02:38:56;8.90;99.90
37408;DHT22;24866;50.248;8.252;2023-01-13T02:41:30;9.00;99.90
37408;DHT22;24866;50.248;8.252;2023-01-13T02:44:23;9.00;99.90
37408;DHT22;24866;50.248;8.252;2023-01-13T02:46:57;9.00;99.90
37408;DHT22;24866;50.248;8.252;2023-01-13T02:49:33;9.00;99.90
37408;DHT22;24866;50.248;8.252;2023-01-13T02:52:09;9.00;99.90
37408;DHT22;24866;50.248;8.252;2023-01-13T02:54:43;9.00;99.90
37408;DHT22;24866;50.248;8.252;2023-01-13T02:57:16;9.00;99.90
37408;DHT22;24866;50.248;8.252;2023-01-13T02:59:47;9.00;99.90
37408;DHT22;24866;50.248;8.252;2023-01-13T03:02:20;9.00;99.90
37408;DHT22;24866;50.248;8.252;2023-01-13T03:04:54;9.00;99.90
37408;DHT22;24866;50.248;8.252;2023-01-13T03:11:01;8.90;99.90
37408;DHT22;24866;50.248;8.252;2023-01-13T03:13:51;8.90;99.90
37408;DHT22;24866;50.248;8.252;2023-01-13T03:16:28;8.90;99.90
37408;DHT22;24866;50.248;8.252;2023-01-13T03:19:20;8.90;99.90
37408;DHT22;24866;50.248;8.252;2023-01-13T03:21:54;8.90;99.90
37408;DHT22;24866;50.248;8.252;2023-01-13T03:24:30;8.90;99.90
37408;DHT22;24866;50.248;8.252;2023-01-13T03:27:07;8.80;99.90
37408;DHT22;24866;50.248;8.252;2023-01-13T03:29:43;8.80;99.90
37408;DHT22;24866;50.248;8.252;2023-01-13T03:32:19;8.80;99.90
37408;DHT22;24866;50.248;8.252;2023-01-13T03:34:54;8.80;99.90
37408;DHT22;24866;50.248;8.252;2023-01-13T03:37:29;8.80;99.90
37408;DHT22;24866;50.248;8.252;2023-01-13T03:40:05;8.80;99.90
37408;DHT22;24866;50.248;8.252;2023-01-13T03:42:38;8.70;99.90
37408;DHT22;24866;50.248;8.252;2023-01-13T03:45:31;8.80;99.90
37408;DHT22;24866;50.248;8.252;2023-01-13T03:48:05;8.80;99.90
37408;DHT22;24866;50.248;8.252;2023-01-13T03:50:39;8.70;99.90
37408;DHT22;24866;50.248;8.252;2023-01-13T03:53:14;8.80;99.90
37408;DHT22;24866;50.248;8.252;2023-01-13T03:55:49;8.70;99.90
37408;DHT22;24866;50.248;8.252;2023-01-13T03:58:23;8.70;99.90
37408;DHT22;24866;50.248;8.252;2023-01-13T04:00:57;8.70;99.90
37408;DHT22;24866;50.248;8.252;2023-01-13T04:03:34;8.70;99.90
37408;DHT22;24866;50.248;8.252;2023-01-13T04:06:13;8.70;99.90
37408;DHT22;24866;50.248;8.252;2023-01-13T04:08:49;8.70;99.90
37408;DHT22;24866;50.248;8.252;2023-01-13T04:11:26;8.70;99.90
37408;DHT22;24866;50.248;8.252;2023-01-13T04:13:59;8.60;99.90
37408;DHT22;24866;50.248;8.252;2023-01-13T04:16:30;8.60;99.90
37408;DHT22;24866;50.248;8.252;2023-01-13T04:19:00;8.60;99.90
37408;DHT22;24866;50.248;8.252;2023-01-13T04:21:33;8.60;99.90
37408;DHT22;24866;50.248;8.252;2023-01-13T04:24:04;8.60;99.90
37408;DHT22;24866;50.248;8.252;2023-01-13T04:26:34;8.60;99.90
37408;DHT22;24866;50.248;8.252;2023-01-13T04:29:04;8.70;99.90
37408;DHT22;24866;50.248;8.252;2023-01-13T04:31:34;8.70;99.90
37408;DHT22;24866;50.248;8.252;2023-01-13T04:34:04;8.70;99.90
37408;DHT22;24866;50.248;8.252;2023-01-13T04:36:35;8.80;99.90
37408;DHT22;24866;50.248;8.252;2023-01-13T04:39:05;8.70;99.90
37408;DHT22;24866;50.248;8.252;2023-01-13T04:41:35;8.70;99.90
37408;DHT22;24866;50.248;8.252;2023-01-13T04:44:19;8.60;99.90
37408;DHT22;24866;50.248;8.252;2023-01-13T04:46:49;8.50;99.90
37408;DHT22;24866;50.248;8.252;2023-01-13T04:49:20;8.40;99.90
37408;DHT22;24866;50.248;8.252;2023-01-13T04:51:51;8.30;99.90
37408;DHT22;24866;50.248;8.252;2023-01-13T04:54:21;8.30;99.90
37408;DHT22;24866;50.248;8.252;2023-01-13T04:56:52;8.20;99.90
37408;DHT22;24866;50.248;8.252;2023-01-13T04:59:22;8.20;99.90
37408;DHT22;24866;50.248;8.252;2023-01-13T05:01:51;8.00;99.90
37408;DHT22;24866;50.248;8.252;2023-01-13T05:04:21;8.10;99.90
37408;DHT22;24866;50.248;8.252;2023-01-13T05:06:53;8.00;99.90
37408;DHT22;24866;50.248;8.252;2023-01-13T05:09:23;7.80;99.90
37408;DHT22;24866;50.248;8.252;2023-01-13T05:11:53;7.70;99.90
37408;DHT22;24866;50.248;8.252;2023-01-13T05:14:40;7.60;99.90
37408;DHT22;24866;50.248;8.252;2023-01-13T05:17:32;7.60;99.90
37408;DHT22;24866;50.248;8.252;2023-01-13T05:20:03;7.60;99.90
37408;DHT22;24866;50.248;8.252;2023-01-13T05:22:34;7.50;99.90
37408;DHT22;24866;50.248;8.252;2023-01-13T05:25:22;7.50;99.90
37408;DHT22;24866;50.248;8.252;2023-01-13T05:27:54;7.40;99.90
37408;DHT22;24866;50.248;8.252;2023-01-13T05:30:27;7.40;99.90
37408;DHT22;24866;50.248;8.252;2023-01-13T05:32:58;7.40;99.90
37408;DHT22;24866;50.248;8.252;2023-01-13T05:35:27;7.40;99.90
37408;DHT22;24866;50.248;8.252;2023-01-13T05:37:59;7.40;99.90
37408;DHT22;24866;50.248;8.252;2023-01-13T05:40:29;7.40;99.90
37408;DHT22;24866;50.248;8.252;2023-01-13T05:43:18;7.40;99.90
37408;DHT22;24866;50.248;8.252;2023-01-13T05:45:51;7.40;99.90
37408;DHT22;24866;50.248;8.252;2023-01-13T05:48:23;7.40;99.90
37408;DHT22;24866;50.248;8.252;2023-01-13T05:50:53;7.40;99.90
37408;DHT22;24866;50.248;8.252;2023-01-13T05:53:25;7.40;99.90
37408;DHT22;24866;50.248;8.252;2023-01-13T05:55:56;7.40;99.90
37408;DHT22;24866;50.248;8.252;2023-01-13T05:58:27;7.40;99.90
37408;DHT22;24866;50.248;8.252;2023-01-13T06:00:59;7.40;99.90
37408;DHT22;24866;50.248;8.252;2023-01-13T06:03:29;7.40;99.90
37408;DHT22;24866;50.248;8.252;2023-01-13T06:06:00;7.30;99.90
37408;DHT22;24866;50.248;8.252;2023-01-13T06:08:34;7.40;99.90
37408;DHT22;24866;50.248;8.252;2023-01-13T06:11:04;7.30;99.90
37408;DHT22;24866;50.248;8.252;2023-01-13T06:13:34;7.30;99.90
37408;DHT22;24866;50.248;8.252;2023-01-13T06:16:05;7.30;99.90
37408;DHT22;24866;50.248;8.252;2023-01-13T06:18:36;7.30;99.90
37408;DHT22;24866;50.248;8.252;2023-01-13T06:21:06;7.30;99.90
37408;DHT22;24866;50.248;8.252;2023-01-13T06:23:37;7.20;99.90
37408;DHT22;24866;50.248;8.252;2023-01-13T06:26:12;7.30;99.90
37408;DHT22;24866;50.248;8.252;2023-01-13T06:28:43;7.30;99.90
37408;DHT22;24866;50.248;8.252;2023-01-13T06:31:13;7.30;99.90
37408;DHT22;24866;50.248;8.252;2023-01-13T06:33:47;7.30;99.90
37408;DHT22;24866;50.248;8.252;2023-01-13T06:36:20;7.20;99.90
37408;DHT22;24866;50.248;8.252;2023-01-13T06:38:54;7.20;99.90
37408;DHT22;24866;50.248;8.252;2023-01-13T06:41:26;7.20;99.90
37408;DHT22;24866;50.248;8.252;2023-01-13T06:44:11;7.20;99.90
37408;DHT22;24866;50.248;8.252;2023-01-13T06:46:41;7.20;99.90
37408;DHT22;24866;50.248;8.252;2023-01-13T06:49:11;7.20;99.90
37408;DHT22;24866;50.248;8.252;2023-01-13T06:51:41;7.20;99.90
37408;DHT22;24866;50.248;8.252;2023-01-13T06:54:12;7.10;99.90
37408;DHT22;24866;50.248;8.252;2023-01-13T06:56:42;7.10;99.90
37408;DHT22;24866;50.248;8.252;2023-01-13T06:59:12;7.20;99.90
37408;DHT22;24866;50.248;8.252;2023-01-13T07:01:42;7.20;99.90
37408;DHT22;24866;50.248;8.252;2023-01-13T07:04:12;7.20;99.90
37408;DHT22;24866;50.248;8.252;2023-01-13T07:06:42;7.10;99.90
37408;DHT22;24866;50.248;8.252;2023-01-13T07:09:13;7.20;99.90
37408;DHT22;24866;50.248;8.252;2023-01-13T07:11:43;7.20;99.90
37408;DHT22;24866;50.248;8.252;2023-01-13T07:14:14;7.20;99.90
37408;DHT22;24866;50.248;8.252;2023-01-13T07:17:02;7.20;99.90
37408;DHT22;24866;50.248;8.252;2023-01-13T07:19:32;7.10;99.90
37408;DHT22;24866;50.248;8.252;2023-01-13T07:22:02;7.00;99.90
37408;DHT22;24866;50.248;8.252;2023-01-13T07:24:33;7.00;99.90
37408;DHT22;24866;50.248;8.252;2023-01-13T07:27:03;7.00;99.90
37408;DHT22;24866;50.248;8.252;2023-01-13T07:29:33;6.90;99.90
37408;DHT22;24866;50.248;8.252;2023-01-13T07:32:05;6.80;99.90
37408;DHT22;24866;50.248;8.252;2023-01-13T07:34:35;6.90;99.90
37408;DHT22;24866;50.248;8.252;2023-01-13T07:37:05;6.90;99.90
37408;DHT22;24866;50.248;8.252;2023-01-13T07:39:37;7.00;99.90
37408;DHT22;24866;50.248;8.252;2023-01-13T07:42:07;7.10;99.90
37408;DHT22;24866;50.248;8.252;2023-01-13T07:44:55;7.00;99.90
37408;DHT22;24866;50.248;8.252;2023-01-13T07:47:25;7.10;99.90
37408;DHT22;24866;50.248;8.252;2023-01-13T07:49:56;7.10;99.90
37408;DHT22;24866;50.248;8.252;2023-01-13T07:52:26;7.10;99.90
37408;DHT22;24866;50.248;8.252;2023-01-13T07:54:57;7.20;99.90
37408;DHT22;24866;50.248;8.252;2023-01-13T07:57:27;7.20;99.90
37408;DHT22;24866;50.248;8.252;2023-01-13T07:59:57;7.20;99.90
37408;DHT22;24866;50.248;8.252;2023-01-13T08:02:27;7.20;99.90
37408;DHT22;24866;50.248;8.252;2023-01-13T08:04:57;7.30;99.90
37408;DHT22;24866;50.248;8.252;2023-01-13T08:07:27;7.30;99.90
37408;DHT22;24866;50.248;8.252;2023-01-13T08:09:59;7.30;99.90
37408;DHT22;24866;50.248;8.252;2023-01-13T08:12:29;7.30;99.90
37408;DHT22;24866;50.248;8.252;2023-01-13T08:15:16;7.30;99.90
37408;DHT22;24866;50.248;8.252;2023-01-13T08:17:47;7.30;99.90
37408;DHT22;24866;50.248;8.252;2023-01-13T08:20:17;7.30;99.90
37408;DHT22;24866;50.248;8.252;2023-01-13T08:22:47;7.30;99.90
37408;DHT22;24866;50.248;8.252;2023-01-13T08:25:18;7.30;99.90
37408;DHT22;24866;50.248;8.252;2023-01-13T08:27:48;7.30;99.90
37408;DHT22;24866;50.248;8.252;2023-01-13T08:30:19;7.30;99.90
37408;DHT22;24866;50.248;8.252;2023-01-13T08:32:49;7.30;99.90
37408;DHT22;24866;50.248;8.252;2023-01-13T08:35:19;7.40;99.90
37408;DHT22;24866;50.248;8.252;2023-01-13T08:37:50;7.40;99.90
37408;DHT22;24866;50.248;8.252;2023-01-13T08:40:21;7.30;99.90
37408;DHT22;24866;50.248;8.252;2023-01-13T08:42:52;7.30;99.90
37408;DHT22;24866;50.248;8.252;2023-01-13T08:45:23;7.40;99.90
37408;DHT22;24866;50.248;8.252;2023-01-13T08:47:53;7.40;99.90
37408;DHT22;24866;50.248;8.252;2023-01-13T08:50:23;7.60;99.90
37408;DHT22;24866;50.248;8.252;2023-01-13T08:52:53;7.60;99.90
37408;DHT22;24866;50.248;8.252;2023-01-13T08:55:25;7.80;99.90
37408;DHT22;24866;50.248;8.252;2023-01-13T08:57:55;7.70;99.90
37408;DHT22;24866;50.248;8.252;2023-01-13T09:00:25;7.80;99.90
37408;DHT22;24866;50.248;8.252;2023-01-13T09:02:55;7.90;99.90
37408;DHT22;24866;50.248;8.252;2023-01-13T09:05:25;7.90;99.90
37408;DHT22;24866;50.248;8.252;2023-01-13T09:07:55;8.10;99.90
37408;DHT22;24866;50.248;8.252;2023-01-13T09:10:26;8.00;99.90
37408;DHT22;24866;50.248;8.252;2023-01-13T09:12:57;8.00;99.90
37408;DHT22;24866;50.248;8.252;2023-01-13T09:15:44;8.00;99.90
37408;DHT22;24866;50.248;8.252;2023-01-13T09:18:14;7.90;99.90
37408;DHT22;24866;50.248;8.252;2023-01-13T09:20:44;7.90;99.90
37408;DHT22;24866;50.248;8.252;2023-01-13T09:23:14;8.00;99.90
37408;DHT22;24866;50.248;8.252;2023-01-13T09:25:46;8.00;99.90
37408;DHT22;24866;50.248;8.252;2023-01-13T09:28:16;8.10;99.90
37408;DHT22;24866;50.248;8.252;2023-01-13T09:30:46;8.00;99.90
37408;DHT22;24866;50.248;8.252;2023-01-13T09:33:16;7.90;99.90
37408;DHT22;24866;50.248;8.252;2023-01-13T09:36:04;7.90;99.90
37408;DHT22;24866;50.248;8.252;2023-01-13T09:38:35;7.90;99.90
37408;DHT22;24866;50.248;8.252;2023-01-13T09:41:06;7.90;99.90
37408;DHT22;24866;50.248;8.252;2023-01-13T09:44:01;8.00;99.90
37408;DHT22;24866;50.248;8.252;2023-01-13T09:46:36;8.00;99.90
37408;DHT22;24866;50.248;8.252;2023-01-13T09:49:19;8.10;99.90
37408;DHT22;24866;50.248;8.252;2023-01-13T09:51:53;8.20;99.90
37408;DHT22;24866;50.248;8.252;2023-01-13T09:54:30;8.10;99.90
37408;DHT22;24866;50.248;8.252;2023-01-13T09:57:08;8.30;99.90
37408;DHT22;24866;50.248;8.252;2023-01-13T09:59:39;8.40;99.90
37408;DHT22;24866;50.248;8.252;2023-01-13T10:02:30;8.60;99.90
37408;DHT22;24866;50.248;8.252;2023-01-13T10:05:11;8.50;99.90
37408;DHT22;24866;50.248;8.252;2023-01-13T10:07:48;8.70;99.90
37408;DHT22;24866;50.248;8.252;2023-01-13T10:10:25;8.70;99.90
37408;DHT22;24866;50.248;8.252;2023-01-13T10:13:00;8.80;99.90
37408;DHT22;24866;50.248;8.252;2023-01-13T10:16:01;8.70;99.90
37408;DHT22;24866;50.248;8.252;2023-01-13T10:18:44;8.60;99.90
37408;DHT22;24866;50.248;8.252;2023-01-13T10:21:30;8.60;99.90
37408;DHT22;24866;50.248;8.252;2023-01-13T10:24:06;8.60;99.90
37408;DHT22;24866;50.248;8.252;2023-01-13T10:26:49;8.50;99.90
37408;DHT22;24866;50.248;8.252;2023-01-13T10:29:27;8.50;99.90
37408;DHT22;24866;50.248;8.252;2023-01-13T10:31:59;8.50;99.90
37408;DHT22;24866;50.248;8.252;2023-01-13T10:34:29;8.40;99.90
37408;DHT22;24866;50.248;8.252;2023-01-13T10:37:00;8.40;99.90
37408;DHT22;24866;50.248;8.252;2023-01-13T10:39:42;8.40;99.90
37408;DHT22;24866;50.248;8.252;2023-01-13T10:42:13;8.30;99.90
37408;DHT22;24866;50.248;8.252;2023-01-13T10:44:51;8.20;99.90
37408;DHT22;24866;50.248;8.252;2023-01-13T10:47:24;8.20;99.90
37408;DHT22;24866;50.248;8.252;2023-01-13T10:50:00;8.10;99.90
37408;DHT22;24866;50.248;8.252;2023-01-13T10:52:31;8.10;99.90
37408;DHT22;24866;50.248;8.252;2023-01-13T10:55:23;8.10;99.90
37408;DHT22;24866;50.248;8.252;2023-01-13T10:57:53;8.00;99.90
37408;DHT22;24866;50.248;8.252;2023-01-13T11:00:31;7.90;99.90
37408;DHT22;24866;50.248;8.252;2023-01-13T11:03:14;7.90;99.90
37408;DHT22;24866;50.248;8.252;2023-01-13T11:05:48;8.10;99.90
37408;DHT22;24866;50.248;8.252;2023-01-13T11:08:20;8.40;99.90
37408;DHT22;24866;50.248;8.252;2023-01-13T11:10:52;8.60;99.90
37408;DHT22;24866;50.248;8.252;2023-01-13T11:13:29;8.60;99.90
37408;DHT22;24866;50.248;8.252;2023-01-13T11:16:04;8.60;99.90
37408;DHT22;24866;50.248;8.252;2023-01-13T11:18:41;8.50;99.90
37408;DHT22;24866;50.248;8.252;2023-01-13T11:21:23;8.70;99.90
37408;DHT22;24866;50.248;8.252;2023-01-13T11:24:03;8.70;99.90
37408;DHT22;24866;50.248;8.252;2023-01-13T11:26:41;8.80;99.90
37408;DHT22;24866;50.248;8.252;2023-01-13T11:29:21;8.90;99.90
37408;DHT22;24866;50.248;8.252;2023-01-13T11:32:02;8.90;99.90
37408;DHT22;24866;50.248;8.252;2023-01-13T11:34:36;8.80;99.90
37408;DHT22;24866;50.248;8.252;2023-01-13T11:37:13;8.90;99.90
37408;DHT22;24866;50.248;8.252;2023-01-13T11:39:53;8.90;99.90
37408;DHT22;24866;50.248;8.252;2023-01-13T11:42:28;9.10;99.90
37408;DHT22;24866;50.248;8.252;2023-01-13T11:45:08;9.10;99.90
37408;DHT22;24866;50.248;8.252;2023-01-13T11:47:47;9.00;99.90
37408;DHT22;24866;50.248;8.252;2023-01-13T11:50:23;9.00;99.90
37408;DHT22;24866;50.248;8.252;2023-01-13T11:53:19;8.90;99.90
37408;DHT22;24866;50.248;8.252;2023-01-13T11:56:04;9.00;99.90
37408;DHT22;24866;50.248;8.252;2023-01-13T11:58:53;8.80;99.90
37408;DHT22;24866;50.248;8.252;2023-01-13T12:01:44;8.90;99.90
37408;DHT22;24866;50.248;8.252;2023-01-13T12:04:25;8.80;99.90
37408;DHT22;24866;50.248;8.252;2023-01-13T12:07:05;8.80;99.90
37408;DHT22;24866;50.248;8.252;2023-01-13T12:09:51;8.90;99.90
37408;DHT22;24866;50.248;8.252;2023-01-13T12:12:36;8.90;99.90
37408;DHT22;24866;50.248;8.252;2023-01-13T12:15:34;9.10;99.90
37408;DHT22;24866;50.248;8.252;2023-01-13T12:18:29;9.20;99.90
37408;DHT22;24866;50.248;8.252;2023-01-13T12:21:17;9.40;99.90
37408;DHT22;24866;50.248;8.252;2023-01-13T12:23:59;9.40;99.90
37408;DHT22;24866;50.248;8.252;2023-01-13T12:26:36;9.30;99.90
37408;DHT22;24866;50.248;8.252;2023-01-13T12:29:11;9.30;99.90
37408;DHT22;24866;50.248;8.252;2023-01-13T12:31:45;9.30;99.90
37408;DHT22;24866;50.248;8.252;2023-01-13T12:34:29;9.20;99.90
37408;DHT22;24866;50.248;8.252;2023-01-13T12:37:09;9.30;99.90
37408;DHT22;24866;50.248;8.252;2023-01-13T12:39:50;9.30;99.90
37408;DHT22;24866;50.248;8.252;2023-01-13T12:42:27;9.30;99.90
37408;DHT22;24866;50.248;8.252;2023-01-13T12:45:25;9.20;99.90
37408;DHT22;24866;50.248;8.252;2023-01-13T12:47:56;9.10;99.90
37408;DHT22;24866;50.248;8.252;2023-01-13T12:50:39;9.10;99.90
37408;DHT22;24866;50.248;8.252;2023-01-13T12:53:36;9.00;99.90
37408;DHT22;24866;50.248;8.252;2023-01-13T12:56:38;9.00;99.90
37408;DHT22;24866;50.248;8.252;2023-01-13T12:59:42;8.90;99.90
37408;DHT22;24866;50.248;8.252;2023-01-13T13:02:30;8.80;99.90
37408;DHT22;24866;50.248;8.252;2023-01-13T13:05:35;8.80;99.90
37408;DHT22;24866;50.248;8.252;2023-01-13T13:08:16;8.70;99.90
37408;DHT22;24866;50.248;8.252;2023-01-13T13:11:07;8.60;99.90
37408;DHT22;24866;50.248;8.252;2023-01-13T13:14:09;8.20;99.90
37408;DHT22;24866;50.248;8.252;2023-01-13T13:16:56;7.50;99.90
37408;DHT22;24866;50.248;8.252;2023-01-13T13:19:46;7.60;99.90
37408;DHT22;24866;50.248;8.252;2023-01-13T13:25:19;7.70;99.90
37408;DHT22;24866;50.248;8.252;2023-01-13T13:28:10;7.60;99.90
37408;DHT22;24866;50.248;8.252;2023-01-13T13:30:49;7.50;99.90
37408;DHT22;24866;50.248;8.252;2023-01-13T13:33:37;7.40;99.90
37408;DHT22;24866;50.248;8.252;2023-01-13T13:36:25;7.50;99.90
37408;DHT22;24866;50.248;8.252;2023-01-13T13:39:16;7.70;99.90
37408;DHT22;24866;50.248;8.252;2023-01-13T13:42:11;7.80;99.90
37408;DHT22;24866;50.248;8.252;2023-01-13T13:45:02;7.90;99.90
37408;DHT22;24866;50.248;8.252;2023-01-13T13:47:58;7.90;99.90
37408;DHT22;24866;50.248;8.252;2023-01-13T13:50:28;8.00;99.90
37408;DHT22;24866;50.248;8.252;2023-01-13T13:53:04;8.00;99.90
37408;DHT22;24866;50.248;8.252;2023-01-13T13:55:37;7.80;99.90
37408;DHT22;24866;50.248;8.252;2023-01-13T13:58:13;7.70;99.90
37408;DHT22;24866;50.248;8.252;2023-01-13T14:00:47;7.60;99.90
37408;DHT22;24866;50.248;8.252;2023-01-13T14:03:22;7.50;99.90
37408;DHT22;24866;50.248;8.252;2023-01-13T14:05:56;7.50;99.90
37408;DHT22;24866;50.248;8.252;2023-01-13T14:08:28;7.50;99.90
37408;DHT22;24866;50.248;8.252;2023-01-13T14:10:58;7.50;99.90
37408;DHT22;24866;50.248;8.252;2023-01-13T14:13:30;7.60;99.90
37408;DHT22;24866;50.248;8.252;2023-01-13T14:16:04;7.70;99.90
37408;DHT22;24866;50.248;8.252;2023-01-13T14:18:46;7.70;99.90
37408;DHT22;24866;50.248;8.252;2023-01-13T14:21:19;7.80;99.90
37408;DHT22;24866;50.248;8.252;2023-01-13T14:23:52;7.90;99.90
37408;DHT22;24866;50.248;8.252;2023-01-13T14:26:24;7.80;99.90
37408;DHT22;24866;50.248;8.252;2023-01-13T14:28:55;7.90;99.90
37408;DHT22;24866;50.248;8.252;2023-01-13T14:31:27;7.90;99.90
37408;DHT22;24866;50.248;8.252;2023-01-13T14:33:58;8.00;99.90
37408;DHT22;24866;50.248;8.252;2023-01-13T14:36:35;7.90;99.90
37408;DHT22;24866;50.248;8.252;2023-01-13T14:39:31;8.00;99.90
37408;DHT22;24866;50.248;8.252;2023-01-13T14:42:02;8.10;99.90
37408;DHT22;24866;50.248;8.252;2023-01-13T14:44:34;8.10;99.90
37408;DHT22;24866;50.248;8.252;2023-01-13T14:47:21;8.00;99.90
37408;DHT22;24866;50.248;8.252;2023-01-13T14:49:58;8.10;99.90
37408;DHT22;24866;50.248;8.252;2023-01-13T14:52:32;8.10;99.90
37408;DHT22;24866;50.248;8.252;2023-01-13T14:55:22;8.10;99.90
37408;DHT22;24866;50.248;8.252;2023-01-13T14:57:52;8.10;99.90
37408;DHT22;24866;50.248;8.252;2023-01-13T15:00:24;8.10;99.90
37408;DHT22;24866;50.248;8.252;2023-01-13T15:03:06;8.00;99.90
37408;DHT22;24866;50.248;8.252;2023-01-13T15:05:41;8.10;99.90
37408;DHT22;24866;50.248;8.252;2023-01-13T15:08:36;8.10;99.90
37408;DHT22;24866;50.248;8.252;2023-01-13T15:11:19;8.00;99.90
37408;DHT22;24866;50.248;8.252;2023-01-13T15:13:55;8.10;99.90
37408;DHT22;24866;50.248;8.252;2023-01-13T15:16:27;8.00;99.90
37408;DHT22;24866;50.248;8.252;2023-01-13T15:19:00;8.10;99.90
37408;DHT22;24866;50.248;8.252;2023-01-13T15:21:31;8.00;99.90
37408;DHT22;24866;50.248;8.252;2023-01-13T15:24:01;8.00;99.90
37408;DHT22;24866;50.248;8.252;2023-01-13T15:26:32;8.00;99.90
37408;DHT22;24866;50.248;8.252;2023-01-13T15:29:03;8.00;99.90
37408;DHT22;24866;50.248;8.252;2023-01-13T15:31:36;8.00;99.90
37408;DHT22;24866;50.248;8.252;2023-01-13T15:34:09;8.00;99.90
37408;DHT22;24866;50.248;8.252;2023-01-13T15:36:40;8.00;99.90
37408;DHT22;24866;50.248;8.252;2023-01-13T15:39:11;8.00;99.90
37408;DHT22;24866;50.248;8.252;2023-01-13T15:41:41;8.00;99.90
37408;DHT22;24866;50.248;8.252;2023-01-13T15:44:28;7.90;99.90
37408;DHT22;24866;50.248;8.252;2023-01-13T15:47:30;7.90;99.90
37408;DHT22;24866;50.248;8.252;2023-01-13T15:50:02;7.80;99.90
37408;DHT22;24866;50.248;8.252;2023-01-13T15:52:32;7.80;99.90
37408;DHT22;24866;50.248;8.252;2023-01-13T15:55:07;7.80;99.90
37408;DHT22;24866;50.248;8.252;2023-01-13T15:57:41;7.70;99.90
37408;DHT22;24866;50.248;8.252;2023-01-13T16:00:16;7.70;99.90
37408;DHT22;24866;50.248;8.252;2023-01-13T16:02:48;7.70;99.90
37408;DHT22;24866;50.248;8.252;2023-01-13T16:05:19;7.70;99.90
37408;DHT22;24866;50.248;8.252;2023-01-13T16:07:49;7.60;99.90
37408;DHT22;24866;50.248;8.252;2023-01-13T16:10:21;7.70;99.90
37408;DHT22;24866;50.248;8.252;2023-01-13T16:12:51;7.70;99.90
37408;DHT22;24866;50.248;8.252;2023-01-13T16:15:23;7.70;99.90
37408;DHT22;24866;50.248;8.252;2023-01-13T16:17:55;7.60;99.90
37408;DHT22;24866;50.248;8.252;2023-01-13T16:20:27;7.70;99.90
37408;DHT22;24866;50.248;8.252;2023-01-13T16:22:57;7.70;99.90
37408;DHT22;24866;50.248;8.252;2023-01-13T16:25:27;7.70;99.90
37408;DHT22;24866;50.248;8.252;2023-01-13T16:27:57;7.70;99.90
37408;DHT22;24866;50.248;8.252;2023-01-13T16:30:29;7.70;99.90
37408;DHT22;24866;50.248;8.252;2023-01-13T16:32:59;7.60;99.90
37408;DHT22;24866;50.248;8.252;2023-01-13T16:35:31;7.60;99.90
37408;DHT22;24866;50.248;8.252;2023-01-13T16:38:02;7.70;99.90
37408;DHT22;24866;50.248;8.252;2023-01-13T16:40:34;7.60;99.90
37408;DHT22;24866;50.248;8.252;2023-01-13T16:43:04;7.60;99.90
37408;DHT22;24866;50.248;8.252;2023-01-13T16:45:34;7.70;99.90